Terminal Aerodrome Forecast
Issued by NWS

Home | Current Version | Previous Version | Text Only | Print | Product List | Glossary On
Versions: 1 2 3 4 5 6 7 8 9 10 11 12 13 14 15 16
000
FTUS44 KLZK 280706 AAA
TAFLLQ
TAF AMD
KLLQ 280706Z 2807/2906 VRB03KT P6SM BKN040
     FM281200 03005KT P6SM BKN025
     FM281600 07007KT P6SM BKN035
     FM282000 09008KT P6SM SCT030 SCT250=

USA.gov is the U.S. government's official web portal to all federal, state and local government web resources and services.